Time;durP1;ratioP1;P1;durP2;ratioP2;P2;SDS_P1;SDS_P2;PMS_P1;PMS_P2;Temp;Humidity;BMP_temperature;BMP_pressure;BME280_temperature;BME280_humidity;BME280_pressure;Samples;Min_cycle;Max_cycle;Signal;HPM_P1;HPM_P2
2022/10/29 00:01:56;;;;;;;16.67;6.03;;;;;;;15.51;100.00;99769.31;5067785;28;20193;-82
2022/10/29 00:04:25;;;;;;;12.80;5.83;;;;;;;15.58;100.00;99759.03;5072207;28;20207;-82
2022/10/29 00:06:56;;;;;;;12.17;5.17;;;;;;;15.67;100.00;99756.56;5076068;28;20242;-81
2022/10/29 00:09:24;;;;;;;16.80;5.90;;;;;;;15.65;100.00;99753.16;5082268;28;20230;-82
2022/10/29 00:11:52;;;;;;;11.53;5.73;;;;;;;15.69;100.00;99762.63;5073356;28;20224;-81
2022/10/29 00:14:21;;;;;;;19.43;6.60;;;;;;;15.79;100.00;99764.59;5090006;28;20237;-81
2022/10/29 00:16:50;;;;;;;14.40;5.80;;;;;;;15.78;100.00;99766.41;5091482;28;20203;-81
2022/10/29 00:19:20;;;;;;;12.60;6.27;;;;;;;15.74;100.00;99762.28;5091083;28;20204;-81
2022/10/29 00:21:50;;;;;;;12.80;5.60;;;;;;;15.73;100.00;99756.09;5090073;28;20294;-81
2022/10/29 00:24:19;;;;;;;11.87;5.57;;;;;;;15.63;100.00;99756.88;5096922;27;20284;-81
2022/10/29 00:26:47;;;;;;;11.73;6.30;;;;;;;15.44;100.00;99768.94;5093984;28;20247;-81
2022/10/29 00:29:15;;;;;;;14.87;6.00;;;;;;;15.39;100.00;99764.88;5094125;28;20241;-82
2022/10/29 00:31:44;;;;;;;13.27;5.57;;;;;;;15.51;100.00;99760.44;5088922;28;20207;-82
2022/10/29 00:34:12;;;;;;;16.20;6.33;;;;;;;15.42;100.00;99765.50;5099029;28;20198;-82
2022/10/29 00:36:42;;;;;;;17.90;6.50;;;;;;;15.51;100.00;99763.13;5096504;28;20187;-82
2022/10/29 00:39:14;;;;;;;16.63;7.30;;;;;;;15.56;100.00;99758.31;5092789;28;20249;-82
2022/10/29 00:41:44;;;;;;;19.00;7.80;;;;;;;15.49;100.00;99759.72;5093488;28;20199;-82
2022/10/29 00:44:34;;;;;;;17.13;6.07;;;;;;;15.47;100.00;99767.84;5091778;28;20196;-82
2022/10/29 00:47:12;;;;;;;15.67;8.10;;;;;;;15.48;100.00;99760.69;5070446;28;20204;-82
2022/10/29 00:49:42;;;;;;;16.73;7.53;;;;;;;15.56;100.00;99768.97;5073330;28;20199;-82
2022/10/29 00:52:13;;;;;;;21.37;7.93;;;;;;;15.55;100.00;99773.47;5074803;28;20212;-82
2022/10/29 00:54:47;;;;;;;13.00;6.20;;;;;;;15.31;100.00;99776.13;5069217;28;20189;-82
2022/10/29 00:57:22;;;;;;;10.70;5.60;;;;;;;15.09;100.00;99778.66;5073322;28;20212;-81
2022/10/29 00:59:51;;;;;;;10.80;5.87;;;;;;;14.92;100.00;99768.34;5065930;28;20208;-82
2022/10/29 01:02:23;;;;;;;15.03;6.23;;;;;;;15.05;100.00;99769.16;5067026;28;20251;-82
2022/10/29 01:04:53;;;;;;;15.17;6.33;;;;;;;15.25;100.00;99765.91;5055715;28;20204;-82
2022/10/29 01:07:24;;;;;;;14.90;7.10;;;;;;;15.07;100.00;99762.78;5069026;28;20253;-82
2022/10/29 01:09:53;;;;;;;14.27;6.20;;;;;;;15.07;100.00;99776.13;5068718;28;20224;-82
2022/10/29 01:12:47;;;;;;;16.47;6.50;;;;;;;14.90;100.00;99776.47;5058003;28;20277;-82
2022/10/29 01:15:25;;;;;;;17.10;6.00;;;;;;;14.82;100.00;99777.03;5066024;28;20188;-82
2022/10/29 01:18:08;;;;;;;15.67;5.90;;;;;;;14.77;100.00;99767.66;5068969;28;20271;-82
2022/10/29 01:21:08;;;;;;;14.07;6.97;;;;;;;14.93;100.00;99770.91;5068930;28;20237;-82
2022/10/29 01:24:10;;;;;;;19.77;6.17;;;;;;;15.00;100.00;99764.19;5083125;28;20195;-82
2022/10/29 01:27:19;;;;;;;17.07;6.40;;;;;;;14.98;100.00;99762.59;5090463;28;20199;-82
2022/10/29 01:30:04;;;;;;;13.97;6.47;;;;;;;14.91;100.00;99770.19;5055131;28;20199;-82
2022/10/29 01:32:44;;;;;;;14.30;6.63;;;;;;;14.94;100.00;99774.44;5097560;28;20217;-82
2022/10/29 01:35:20;;;;;;;11.13;6.20;;;;;;;15.02;100.00;99769.41;5089504;28;20188;-82
2022/10/29 01:37:56;;;;;;;14.23;6.13;;;;;;;14.89;100.00;99770.28;5096564;28;20191;-83
2022/10/29 01:40:28;;;;;;;15.13;6.60;;;;;;;14.86;100.00;99780.31;5086230;28;20245;-83
2022/10/29 01:43:04;;;;;;;11.97;6.17;;;;;;;14.78;100.00;99772.03;5093649;28;20261;-83
2022/10/29 01:45:37;;;;;;;18.63;6.03;;;;;;;14.75;100.00;99775.75;5089878;28;20199;-83
2022/10/29 01:48:14;;;;;;;10.93;6.33;;;;;;;14.71;100.00;99770.75;5088397;28;20218;-82
2022/10/29 01:50:46;;;;;;;13.93;7.13;;;;;;;14.80;100.00;99768.28;5090631;28;20199;-82
2022/10/29 01:53:14;;;;;;;15.80;6.90;;;;;;;14.79;100.00;99773.72;5085731;28;20669;-82
2022/10/29 01:55:43;;;;;;;13.10;6.90;;;;;;;14.77;100.00;99786.34;5088385;28;20250;-81
2022/10/29 01:58:13;;;;;;;16.83;7.20;;;;;;;14.74;100.00;99790.03;5090325;28;20195;-82
2022/10/29 02:00:50;;;;;;;14.87;6.70;;;;;;;14.73;100.00;99784.81;5092947;28;20232;-82
2022/10/29 02:03:37;;;;;;;13.43;6.40;;;;;;;14.66;100.00;99783.53;5090446;28;20219;-82
2022/10/29 02:06:15;;;;;;;13.13;5.40;;;;;;;14.57;100.00;99777.03;5087467;28;20199;-82
2022/10/29 02:08:53;;;;;;;12.37;6.13;;;;;;;14.37;100.00;99777.56;5092485;28;20188;-82
2022/10/29 02:11:26;;;;;;;13.43;6.10;;;;;;;14.31;100.00;99771.72;5089579;28;20220;-81
2022/10/29 02:13:59;;;;;;;15.40;6.60;;;;;;;14.27;100.00;99780.00;5096438;28;20207;-82
2022/10/29 02:16:30;;;;;;;18.23;7.13;;;;;;;14.36;100.00;99778.53;5091529;28;20347;-82
2022/10/29 02:19:01;;;;;;;19.00;6.60;;;;;;;14.37;100.00;99777.56;5092287;28;20188;-82
2022/10/29 02:21:30;;;;;;;10.37;6.30;;;;;;;14.37;100.00;99778.41;5096104;28;20196;-82
2022/10/29 02:24:01;;;;;;;15.53;6.40;;;;;;;14.39;100.00;99784.50;5097210;28;20203;-82
2022/10/29 02:26:29;;;;;;;15.70;6.97;;;;;;;14.28;100.00;99773.72;5063281;28;20200;-81
2022/10/29 02:28:58;;;;;;;13.10;6.40;;;;;;;14.30;100.00;99764.69;5071541;28;20204;-81
2022/10/29 02:31:26;;;;;;;14.00;6.67;;;;;;;14.30;100.00;99762.03;5064555;28;20258;-82
2022/10/29 02:33:55;;;;;;;17.90;7.17;;;;;;;14.30;100.00;99759.34;5063151;28;20231;-82
2022/10/29 02:36:25;;;;;;;11.67;6.27;;;;;;;14.29;100.00;99756.81;5070519;28;20200;-82
2022/10/29 02:38:54;;;;;;;20.13;6.80;;;;;;;14.11;100.00;99745.59;5069293;28;20200;-81
2022/10/29 02:41:23;;;;;;;16.73;6.50;;;;;;;14.09;100.00;99744.88;5067306;28;20242;-82
2022/10/29 02:43:53;;;;;;;14.90;6.40;;;;;;;14.00;100.00;99745.50;5062670;28;20297;-82
2022/10/29 02:46:26;;;;;;;14.80;6.30;;;;;;;13.94;100.00;99748.56;5070065;28;20200;-82
2022/10/29 02:48:57;;;;;;;11.27;5.37;;;;;;;13.86;100.00;99746.41;5066697;28;20196;-82
2022/10/29 02:51:27;;;;;;;14.97;5.73;;;;;;;13.82;100.00;99744.09;5024234;28;20247;-82
2022/10/29 02:53:56;;;;;;;11.90;6.07;;;;;;;13.81;100.00;99745.03;5069930;28;20212;-81
2022/10/29 02:56:25;;;;;;;13.10;5.90;;;;;;;13.77;100.00;99738.22;5064179;28;20212;-82
2022/10/29 02:58:53;;;;;;;11.40;6.13;;;;;;;13.79;100.00;99733.63;5066455;28;20200;-81
2022/10/29 03:01:21;;;;;;;10.27;5.90;;;;;;;13.68;100.00;99737.00;5065054;28;20270;-82
2022/10/29 03:03:50;;;;;;;13.03;5.97;;;;;;;13.72;100.00;99728.72;5079173;28;20631;-82
2022/10/29 03:06:20;;;;;;;15.50;6.03;;;;;;;13.78;100.00;99727.44;5051283;28;20201;-82
2022/10/29 03:08:50;;;;;;;13.03;6.17;;;;;;;13.87;100.00;99728.63;5049105;28;20239;-82
2022/10/29 03:11:19;;;;;;;13.33;7.03;;;;;;;13.91;100.00;99724.81;5052009;28;20221;-81
2022/10/29 03:13:47;;;;;;;12.73;6.90;;;;;;;13.84;100.00;99729.69;5051026;28;20282;-82
2022/10/29 03:16:16;;;;;;;12.57;6.30;;;;;;;13.79;100.00;99722.97;5049125;28;20209;-82
2022/10/29 03:18:45;;;;;;;10.90;6.20;;;;;;;13.63;100.00;99740.00;5051059;28;20193;-81
2022/10/29 03:21:14;;;;;;;16.63;5.53;;;;;;;13.66;100.00;99741.59;5055369;28;20207;-82
2022/10/29 03:23:43;;;;;;;12.00;6.20;;;;;;;13.73;100.00;99738.44;5053223;28;20196;-82
2022/10/29 03:26:13;;;;;;;14.40;7.10;;;;;;;13.78;100.00;99737.25;5052793;28;20648;-81
2022/10/29 03:28:44;;;;;;;17.97;7.37;;;;;;;13.86;100.00;99742.91;5045613;28;20211;-82
2022/10/29 03:31:13;;;;;;;16.07;7.27;;;;;;;13.87;100.00;99744.59;5045966;28;20205;-81
2022/10/29 03:33:41;;;;;;;19.37;7.07;;;;;;;13.82;100.00;99738.75;5042949;28;20221;-81
2022/10/29 03:36:10;;;;;;;15.50;7.27;;;;;;;13.78;100.00;99739.91;5048789;28;20231;-82
2022/10/29 03:38:40;;;;;;;12.87;6.27;;;;;;;13.74;100.00;99739.28;4973664;28;20216;-82
2022/10/29 03:41:09;;;;;;;11.60;6.00;;;;;;;13.60;100.00;99739.34;4943534;28;20275;-81
2022/10/29 03:43:41;;;;;;;11.90;5.33;;;;;;;13.61;100.00;99744.59;4978528;28;20198;-82
2022/10/29 03:46:11;;;;;;;11.53;5.00;;;;;;;13.35;100.00;99742.78;5032625;28;20198;-82
2022/10/29 03:48:40;;;;;;;8.93;4.47;;;;;;;13.32;100.00;99749.19;4950252;29;20212;-81
2022/10/29 03:51:10;;;;;;;8.90;4.73;;;;;;;13.13;100.00;99748.66;4948453;29;20188;-81
2022/10/29 03:53:40;;;;;;;7.93;4.27;;;;;;;13.10;100.00;99740.84;4946842;29;20323;-81
2022/10/29 03:56:11;;;;;;;8.70;4.30;;;;;;;13.01;100.00;99747.59;4871785;29;20238;-81
2022/10/29 03:58:41;;;;;;;6.90;4.30;;;;;;;13.05;100.00;99746.47;4874427;29;20202;-82
2022/10/29 04:01:11;;;;;;;13.47;5.33;;;;;;;13.25;100.00;99750.53;4878741;29;20192;-82
2022/10/29 04:03:41;;;;;;;19.63;9.27;;;;;;;13.27;100.00;99751.28;4921689;29;20228;-82
2022/10/29 04:06:14;;;;;;;10.13;5.67;;;;;;;13.26;100.00;99756.69;4947922;28;20199;-82
2022/10/29 04:08:42;;;;;;;14.27;6.50;;;;;;;13.28;100.00;99760.97;4949293;29;20208;-82
2022/10/29 04:11:12;;;;;;;15.50;6.40;;;;;;;13.31;100.00;99762.56;4952774;29;20353;-82
2022/10/29 04:13:42;;;;;;;14.43;6.30;;;;;;;13.40;100.00;99760.13;4951123;28;20283;-82
2022/10/29 04:16:11;;;;;;;11.27;6.03;;;;;;;13.41;100.00;99759.22;4951677;29;20201;-82
2022/10/29 04:18:40;;;;;;;11.20;6.17;;;;;;;13.26;100.00;99759.34;4949319;29;20208;-82
2022/10/29 04:21:09;;;;;;;16.10;6.77;;;;;;;13.15;100.00;99746.72;4951036;28;20196;-82
2022/10/29 04:23:57;;;;;;;9.73;6.10;;;;;;;13.16;100.00;99757.25;4954089;29;20295;-81
2022/10/29 04:26:46;;;;;;;15.57;6.53;;;;;;;13.19;100.00;99769.53;5022779;28;20200;-81
2022/10/29 04:29:36;;;;;;;19.87;7.50;;;;;;;13.21;100.00;99772.09;5093814;28;20286;-81
2022/10/29 04:32:05;;;;;;;12.67;6.20;;;;;;;13.13;100.00;99769.91;5090579;28;20198;-82
2022/10/29 04:34:33;;;;;;;16.90;6.67;;;;;;;13.19;100.00;99772.19;5097297;28;20293;-81
2022/10/29 04:37:02;;;;;;;9.80;5.70;;;;;;;13.09;100.00;99768.41;5101260;27;20195;-82
2022/10/29 04:39:30;;;;;;;14.50;6.63;;;;;;;13.17;100.00;99769.59;5091664;28;20199;-81
2022/10/29 04:41:59;;;;;;;12.37;6.30;;;;;;;13.19;100.00;99772.19;5097772;28;20192;-81
2022/10/29 04:44:27;;;;;;;13.73;5.70;;;;;;;13.17;100.00;99772.28;5102600;28;20196;-81
2022/10/29 04:46:57;;;;;;;16.27;6.40;;;;;;;13.20;100.00;99773.91;5100863;28;20204;-81
2022/10/29 04:49:26;;;;;;;11.23;5.90;;;;;;;13.11;100.00;99770.00;5093377;28;20257;-81
2022/10/29 04:51:55;;;;;;;13.83;6.07;;;;;;;13.24;100.00;99759.47;5088738;28;20199;-81
2022/10/29 04:54:24;;;;;;;11.20;5.60;;;;;;;13.12;100.00;99754.88;5084306;28;20353;-81
2022/10/29 04:56:52;;;;;;;9.53;5.67;;;;;;;13.19;100.00;99742.94;5088337;28;20192;-81
2022/10/29 04:59:21;;;;;;;18.70;7.67;;;;;;;13.42;100.00;99742.28;5085869;28;20291;-81
2022/10/29 05:01:49;;;;;;;14.87;7.77;;;;;;;13.61;100.00;99733.94;5093427;28;20191;-81
2022/10/29 05:04:19;;;;;;;17.03;6.93;;;;;;;13.41;100.00;99737.94;5090848;28;20199;-81
2022/10/29 05:06:48;;;;;;;13.87;6.00;;;;;;;12.82;100.00;99749.75;5090719;28;20247;-81
2022/10/29 05:09:17;;;;;;;10.17;6.50;;;;;;;13.05;100.00;99743.81;5088991;28;20200;-81
2022/10/29 05:11:45;;;;;;;15.03;6.67;;;;;;;13.13;100.00;99749.50;5086351;28;20273;-81
2022/10/29 05:14:14;;;;;;;12.63;7.03;;;;;;;13.16;100.00;99746.63;5089592;28;20215;-81
2022/10/29 05:16:43;;;;;;;17.23;7.13;;;;;;;13.38;100.00;99740.78;5089830;28;20227;-81
2022/10/29 05:19:14;;;;;;;16.63;7.20;;;;;;;13.40;100.00;99743.31;5094753;28;20268;-81
2022/10/29 05:21:44;;;;;;;15.80;7.77;;;;;;;13.38;100.00;99745.25;5097261;28;20237;-81
2022/10/29 05:24:12;;;;;;;16.80;7.00;;;;;;;13.52;100.00;99731.88;5092830;28;20191;-81
2022/10/29 05:26:42;;;;;;;16.77;7.47;;;;;;;13.50;100.00;99738.25;5093128;28;20203;-81
2022/10/29 05:29:11;;;;;;;14.70;7.33;;;;;;;13.48;100.00;99745.47;5092903;28;20192;-82
2022/10/29 05:31:42;;;;;;;15.33;6.73;;;;;;;13.42;100.00;99747.63;5097178;28;20650;-81
2022/10/29 05:34:10;;;;;;;14.90;7.10;;;;;;;13.38;100.00;99743.44;5093216;28;20226;-81
2022/10/29 05:36:39;;;;;;;16.63;6.87;;;;;;;13.40;100.00;99746.00;5088507;28;20199;-81
2022/10/29 05:39:09;;;;;;;16.23;7.77;;;;;;;13.54;100.00;99747.75;5090433;28;20207;-81
2022/10/29 05:41:38;;;;;;;17.83;8.20;;;;;;;13.60;100.00;99756.16;5089575;28;20323;-81
2022/10/29 05:44:06;;;;;;;20.13;8.13;;;;;;;13.72;100.00;99755.34;5096292;28;20198;-81
2022/10/29 05:46:35;;;;;;;17.50;8.17;;;;;;;13.73;100.00;99751.75;5096128;28;20195;-82
2022/10/29 05:49:03;;;;;;;20.50;8.10;;;;;;;13.75;100.00;99746.31;5093975;28;20195;-82
2022/10/29 05:51:32;;;;;;;14.00;7.80;;;;;;;13.85;100.00;99750.03;5095861;28;20708;-82
2022/10/29 05:54:05;;;;;;;15.40;8.10;;;;;;;13.70;100.00;99753.72;5092665;28;20277;-81
2022/10/29 05:56:36;;;;;;;15.20;7.27;;;;;;;13.63;100.00;99760.44;5097973;28;20253;-81
2022/10/29 05:59:05;;;;;;;12.40;6.80;;;;;;;13.50;100.00;99751.56;5098271;28;20671;-81
2022/10/29 06:01:33;;;;;;;13.80;5.73;;;;;;;13.49;100.00;99749.84;5100012;28;20184;-81
2022/10/29 06:04:02;;;;;;;15.13;7.73;;;;;;;13.30;100.00;99743.09;5095493;28;20204;-81
2022/10/29 06:06:31;;;;;;;18.47;8.33;;;;;;;13.56;100.00;99741.34;5094104;28;20188;-81
2022/10/29 06:08:59;;;;;;;20.77;8.40;;;;;;;13.71;100.00;99734.16;5096456;28;20199;-81
2022/10/29 06:11:28;;;;;;;15.47;7.73;;;;;;;13.80;100.00;99730.00;5098166;27;20207;-80
2022/10/29 06:13:58;;;;;;;16.30;8.13;;;;;;;13.83;100.00;99735.13;5091973;28;20223;-81
2022/10/29 06:16:27;;;;;;;17.13;7.90;;;;;;;13.90;100.00;99741.75;5076913;28;20196;-81
2022/10/29 06:18:56;;;;;;;21.67;8.10;;;;;;;14.00;100.00;99738.34;5091383;28;20256;-81
2022/10/29 06:21:24;;;;;;;15.10;8.50;;;;;;;14.00;100.00;99729.50;5092828;28;20194;-81
2022/10/29 06:23:54;;;;;;;17.07;9.03;;;;;;;14.02;100.00;99735.59;5073397;28;20196;-81
2022/10/29 06:26:23;;;;;;;20.17;9.20;;;;;;;14.04;100.00;99738.97;5087595;28;20203;-81
2022/10/29 06:28:51;;;;;;;14.57;9.30;;;;;;;14.11;100.00;99742.09;5094050;28;20195;-81
2022/10/29 06:31:21;;;;;;;19.57;9.47;;;;;;;14.06;100.00;99744.19;5100369;27;20191;-81
2022/10/29 06:33:49;;;;;;;21.70;8.70;;;;;;;14.00;100.00;99745.50;5095181;27;20219;-82
2022/10/29 06:36:18;;;;;;;19.60;9.30;;;;;;;13.95;100.00;99736.94;5029710;28;20656;-81
2022/10/29 06:38:51;;;;;;;17.60;9.23;;;;;;;13.91;100.00;99738.97;5026145;28;20205;-81
2022/10/29 06:41:23;;;;;;;17.93;9.13;;;;;;;13.96;100.00;99739.50;4999039;28;20248;-82
2022/10/29 06:43:53;;;;;;;17.67;9.43;;;;;;;14.12;100.00;99741.97;5031853;28;20197;-81
2022/10/29 06:46:24;;;;;;;17.97;9.30;;;;;;;14.11;100.00;99740.28;5026663;28;20201;-81
2022/10/29 06:48:53;;;;;;;20.23;9.77;;;;;;;14.17;100.00;99747.81;4952799;28;20197;-81
2022/10/29 06:51:21;;;;;;;19.30;8.70;;;;;;;14.10;100.00;99749.22;4952798;28;20271;-81
2022/10/29 06:53:56;;;;;;;20.17;8.83;;;;;;;14.24;100.00;99749.13;4970149;28;20250;-82
2022/10/29 06:56:25;;;;;;;18.47;8.37;;;;;;;14.22;100.00;99747.53;5006731;28;20242;-80
2022/10/29 06:58:53;;;;;;;20.27;8.70;;;;;;;14.29;100.00;99740.81;5010560;28;20225;-81
2022/10/29 07:01:25;;;;;;;19.43;8.97;;;;;;;14.27;100.00;99748.03;5011200;28;20301;-81
2022/10/29 07:03:59;;;;;;;19.57;9.30;;;;;;;14.33;100.00;99736.97;5012825;28;20252;-80
2022/10/29 07:06:32;;;;;;;21.30;9.07;;;;;;;14.34;100.00;99741.31;5012572;28;20206;-79
2022/10/29 07:09:00;;;;;;;18.83;9.17;;;;;;;14.35;100.00;99736.84;5011617;28;20202;-82
2022/10/29 07:11:29;;;;;;;19.90;9.10;;;;;;;14.42;100.00;99743.47;5010349;28;20194;-82
2022/10/29 07:13:58;;;;;;;16.03;8.83;;;;;;;14.43;100.00;99746.00;5066535;28;20187;-79
2022/10/29 07:16:28;;;;;;;19.83;9.07;;;;;;;14.35;100.00;99728.84;5094640;28;20192;-81
2022/10/29 07:18:56;;;;;;;19.00;9.50;;;;;;;14.53;100.00;99747.09;5070714;28;20230;-81
2022/10/29 07:21:26;;;;;;;17.57;9.30;;;;;;;14.51;100.00;99735.69;5066046;28;20193;-81
2022/10/29 07:23:55;;;;;;;17.77;8.90;;;;;;;14.48;100.00;99738.59;5016512;28;20205;-81
2022/10/29 07:26:27;;;;;;;15.50;8.80;;;;;;;14.50;100.00;99733.16;5071856;28;20287;-81
2022/10/29 07:28:57;;;;;;;21.40;8.53;;;;;;;14.54;100.00;99750.63;5065822;28;20196;-81
2022/10/29 07:31:27;;;;;;;16.10;8.73;;;;;;;14.49;100.00;99739.44;5072708;28;20220;-81
2022/10/29 07:33:56;;;;;;;12.13;7.07;;;;;;;14.58;100.00;99736.13;5068900;28;20200;-81
2022/10/29 07:36:24;;;;;;;18.77;8.40;;;;;;;14.37;100.00;99738.44;5069045;28;20204;-80
2022/10/29 07:38:53;;;;;;;11.57;7.50;;;;;;;14.52;100.00;99752.53;5072975;28;20242;-81
2022/10/29 07:41:21;;;;;;;15.10;7.90;;;;;;;14.60;100.00;99752.84;4991872;28;20195;-82
2022/10/29 07:43:50;;;;;;;20.20;8.17;;;;;;;14.62;100.00;99763.41;4988334;28;20261;-81
2022/10/29 07:46:20;;;;;;;15.13;7.93;;;;;;;14.72;100.00;99753.78;4990073;28;20200;-81
2022/10/29 07:48:51;;;;;;;16.37;7.83;;;;;;;14.70;100.00;99761.06;4988168;28;20230;-81
2022/10/29 07:51:19;;;;;;;14.07;7.33;;;;;;;14.61;100.00;99757.22;4986754;28;20242;-81
2022/10/29 07:53:48;;;;;;;18.20;7.27;;;;;;;14.59;100.00;99760.00;4989745;28;20194;-81
2022/10/29 07:56:16;;;;;;;17.63;7.77;;;;;;;14.68;100.00;99758.50;4997728;28;20287;-82
2022/10/29 07:58:45;;;;;;;19.30;10.40;;;;;;;14.82;100.00;99750.34;5034968;28;20207;-81
2022/10/29 08:01:13;;;;;;;26.97;12.50;;;;;;;14.78;100.00;99754.22;5089592;28;20222;-81
2022/10/29 08:03:42;;;;;;;25.60;10.70;;;;;;;14.79;100.00;99755.91;5094364;28;20195;-81
2022/10/29 08:06:15;;;;;;;22.27;9.67;;;;;;;15.07;100.00;99754.78;5089099;28;20253;-81
2022/10/29 08:08:44;;;;;;;19.27;8.27;;;;;;;15.10;100.00;99745.69;5091771;28;20249;-81
2022/10/29 08:11:12;;;;;;;21.10;8.30;;;;;;;15.27;100.00;99747.13;5072102;28;20196;-81
2022/10/29 08:13:41;;;;;;;22.77;8.17;;;;;;;15.26;100.00;99748.09;5090223;28;20235;-81
2022/10/29 08:16:09;;;;;;;14.80;8.10;;;;;;;15.35;100.00;99734.06;5095266;28;20272;-81
2022/10/29 08:18:38;;;;;;;17.73;7.27;;;;;;;15.28;100.00;99738.13;5090948;28;20218;-81
2022/10/29 08:21:07;;;;;;;17.17;7.23;;;;;;;15.31;100.00;99724.56;5093741;28;20195;-81
2022/10/29 08:23:36;;;;;;;16.10;7.60;;;;;;;15.17;100.00;99733.59;5094629;28;20192;-81
2022/10/29 08:26:05;;;;;;;19.10;7.70;;;;;;;15.18;100.00;99735.31;5088706;28;20249;-81
2022/10/29 08:28:34;;;;;;;16.07;7.90;;;;;;;15.31;100.00;99737.91;5086944;28;20200;-81
2022/10/29 08:31:03;;;;;;;14.47;7.20;;;;;;;15.35;100.00;99737.59;5086155;28;20264;-80
2022/10/29 08:33:31;;;;;;;18.93;7.67;;;;;;;15.45;100.00;99735.94;5095158;27;20210;-81
2022/10/29 08:36:00;;;;;;;18.10;7.73;;;;;;;15.46;100.00;99732.28;5099014;28;20215;-81
2022/10/29 08:38:28;;;;;;;17.13;7.70;;;;;;;15.51;100.00;99731.06;5093811;28;20188;-81
2022/10/29 08:41:18;;;;;;;17.70;7.20;;;;;;;15.49;100.00;99733.00;5092351;28;20635;-81
2022/10/29 08:44:06;;;;;;;16.10;7.43;;;;;;;15.57;100.00;99734.16;5090937;28;20203;-81
2022/10/29 08:46:46;;;;;;;20.20;8.40;;;;;;;15.64;100.00;99735.44;5093611;28;20187;-82
2022/10/29 08:49:19;;;;;;;18.40;7.60;;;;;;;15.59;100.00;99734.88;5094630;27;20194;-81
2022/10/29 08:51:54;;;;;;;19.27;8.03;;;;;;;15.61;100.00;99737.47;5092497;28;20213;-81
2022/10/29 08:54:25;;;;;;;15.03;8.13;;;;;;;15.63;100.00;99747.09;5090158;28;20199;-81
2022/10/29 08:57:06;;;;;;;17.70;9.40;;;;;;;15.63;100.00;99743.53;5091993;28;20231;-81
2022/10/29 08:59:43;;;;;;;18.30;9.23;;;;;;;15.80;100.00;99748.44;5092981;28;20191;-81
2022/10/29 09:02:19;;;;;;;13.73;8.47;;;;;;;15.72;100.00;99738.34;5072914;28;20654;-82
2022/10/29 09:04:49;;;;;;;20.23;7.93;;;;;;;15.82;100.00;99745.66;5093707;28;20199;-81
2022/10/29 09:07:40;;;;;;;19.83;7.73;;;;;;;16.00;100.00;99747.78;5093941;27;20188;-81
2022/10/29 09:10:17;;;;;;;17.47;6.60;;;;;;;15.94;100.00;99742.06;5083075;28;20200;-81
2022/10/29 09:13:01;;;;;;;19.63;7.77;;;;;;;16.16;100.00;99739.44;5089044;28;20226;-81
2022/10/29 09:15:40;;;;;;;14.53;6.93;;;;;;;16.10;100.00;99731.88;5047401;28;20292;-81
2022/10/29 09:18:35;;;;;;;17.70;7.60;;;;;;;16.23;100.00;99721.09;5046194;28;20230;-80
2022/10/29 09:21:12;;;;;;;16.50;6.53;;;;;;;16.28;100.00;99721.56;5045311;28;20185;-80
2022/10/29 09:23:59;;;;;;;19.00;7.40;;;;;;;16.31;100.00;99719.53;5045957;28;20266;-81
2022/10/29 09:26:33;;;;;;;18.07;6.70;;;;;;;16.33;100.00;99711.38;5041344;28;20193;-81
2022/10/29 09:29:29;;;;;;;15.20;6.93;;;;;;;16.42;100.00;99712.47;5049564;28;20285;-82
2022/10/29 09:32:02;;;;;;;16.90;7.03;;;;;;;16.49;100.00;99709.19;5048137;28;20223;-80
2022/10/29 09:34:40;;;;;;;18.77;7.07;;;;;;;16.48;100.00;99702.13;5039679;28;20379;-82
2022/10/29 09:37:15;;;;;;;19.27;6.87;;;;;;;16.56;100.00;99698.84;5045482;28;20267;-81
2022/10/29 09:39:48;;;;;;;17.30;6.73;;;;;;;16.70;100.00;99687.94;5048227;28;20718;-81
2022/10/29 09:42:24;;;;;;;14.90;6.10;;;;;;;16.64;100.00;99680.38;5048639;28;20201;-81
2022/10/29 09:44:57;;;;;;;17.00;6.20;;;;;;;16.86;100.00;99680.34;5042597;28;20201;-81
2022/10/29 09:47:37;;;;;;;15.53;5.87;;;;;;;17.08;100.00;99684.81;5049642;28;20306;-82
2022/10/29 09:50:15;;;;;;;17.07;7.57;;;;;;;17.23;100.00;99681.81;5046348;28;20266;-82
2022/10/29 09:52:45;;;;;;;16.90;9.93;;;;;;;17.33;100.00;99683.59;5050478;28;20279;-81
2022/10/29 09:55:20;;;;;;;16.23;6.80;;;;;;;17.38;100.00;99685.91;5032484;28;20199;-81
2022/10/29 09:57:49;;;;;;;21.57;6.43;;;;;;;17.42;100.00;99682.00;5046243;28;20644;-81
2022/10/29 10:00:23;;;;;;;17.73;6.30;;;;;;;17.37;100.00;99670.78;5090663;28;20192;-81
2022/10/29 10:02:57;;;;;;;14.97;5.90;;;;;;;17.29;100.00;99676.81;5090984;28;20245;-80
2022/10/29 10:05:28;;;;;;;17.50;6.57;;;;;;;17.21;100.00;99665.91;5064061;28;20200;-80
2022/10/29 10:08:11;;;;;;;12.43;6.77;;;;;;;17.32;100.00;99673.88;5062919;28;20246;-80
2022/10/29 10:11:03;;;;;;;15.77;6.73;;;;;;;17.37;100.00;99662.75;5064574;28;20204;-81
2022/10/29 10:13:34;;;;;;;16.70;7.27;;;;;;;17.34;100.00;99666.56;5065174;28;20775;-81
2022/10/29 10:16:06;;;;;;;18.20;8.13;;;;;;;17.44;100.00;99656.75;5066030;28;20216;-80
2022/10/29 10:18:40;;;;;;;18.17;7.73;;;;;;;17.46;100.00;99657.47;5071664;28;20201;-80
2022/10/29 10:21:11;;;;;;;18.80;8.70;;;;;;;17.49;100.00;99663.59;5066330;28;20261;-81
2022/10/29 10:23:43;;;;;;;18.57;7.40;;;;;;;17.52;100.00;99655.28;5078755;28;20265;-80
2022/10/29 10:26:33;;;;;;;16.30;7.67;;;;;;;17.51;100.00;99657.09;5085466;28;20223;-80
2022/10/29 10:29:09;;;;;;;19.53;8.37;;;;;;;17.50;100.00;99652.72;5073704;28;20204;-80
2022/10/29 10:31:40;;;;;;;17.17;8.57;;;;;;;17.62;100.00;99649.00;5051567;28;20297;-80
2022/10/29 10:34:14;;;;;;;20.37;8.93;;;;;;;17.57;100.00;99650.41;5051203;28;20189;-81
2022/10/29 10:36:44;;;;;;;21.50;8.73;;;;;;;17.56;100.00;99659.38;5051538;28;20216;-80
2022/10/29 10:39:24;;;;;;;19.30;8.70;;;;;;;17.54;100.00;99658.66;5053784;28;20247;-80
2022/10/29 10:41:53;;;;;;;22.43;9.90;;;;;;;17.66;100.00;99660.28;5048825;28;20197;-81
2022/10/29 10:44:23;;;;;;;20.53;9.00;;;;;;;17.72;100.00;99652.63;5050533;28;20208;-80
2022/10/29 10:46:56;;;;;;;18.00;8.97;;;;;;;17.92;100.00;99652.75;5048449;28;20204;-80
2022/10/29 10:49:31;;;;;;;17.17;9.53;;;;;;;17.84;100.00;99652.53;5031693;28;20200;-81
2022/10/29 10:52:05;;;;;;;15.73;8.97;;;;;;;17.67;100.00;99643.28;5072519;28;20196;-80
2022/10/29 10:54:40;;;;;;;16.53;9.60;;;;;;;17.64;100.00;99643.50;5070653;28;20709;-80
2022/10/29 10:57:22;;;;;;;22.53;8.50;;;;;;;17.71;100.00;99648.25;5065483;28;20211;-80
2022/10/29 11:00:00;;;;;;;20.80;9.03;;;;;;;17.71;100.00;99648.25;5067743;28;20264;-80
2022/10/29 11:02:37;;;;;;;17.33;9.70;;;;;;;17.45;100.00;99653.09;5070772;28;20204;-80
2022/10/29 11:05:16;;;;;;;20.70;9.27;;;;;;;17.50;100.00;99647.38;5068988;28;20238;-81
2022/10/29 11:07:49;;;;;;;19.10;9.40;;;;;;;17.51;100.00;99640.19;5083701;28;20221;-80
2022/10/29 11:10:20;;;;;;;19.00;8.40;;;;;;;17.57;100.00;99619.09;5092581;28;20203;-80
2022/10/29 11:12:55;;;;;;;19.13;8.93;;;;;;;17.61;100.00;99636.59;5095078;28;20226;-81
2022/10/29 11:15:37;;;;;;;19.53;8.80;;;;;;;17.65;100.00;99627.28;5098218;27;20268;-81
2022/10/29 11:18:16;;;;;;;18.83;9.00;;;;;;;17.70;100.00;99617.09;5091411;28;20219;-81
2022/10/29 11:20:59;;;;;;;14.03;8.40;;;;;;;17.71;100.00;99617.94;5095308;28;20199;-81
2022/10/29 11:23:38;;;;;;;21.60;9.20;;;;;;;17.77;100.00;99621.91;5091270;28;20203;-80
2022/10/29 11:26:11;;;;;;;20.00;9.57;;;;;;;17.73;100.00;99626.69;5090458;28;20192;-81
2022/10/29 11:28:48;;;;;;;23.50;9.07;;;;;;;17.75;100.00;99627.38;5090032;28;20188;-81
2022/10/29 11:31:24;;;;;;;19.53;9.00;;;;;;;17.81;100.00;99617.97;5088197;28;20191;-81
2022/10/29 11:34:03;;;;;;;20.60;8.43;;;;;;;18.00;100.00;99613.56;5094713;28;20199;-81
2022/10/29 11:36:41;;;;;;;20.40;8.83;;;;;;;18.26;100.00;99611.28;5092799;28;20216;-81
2022/10/29 11:39:16;;;;;;;18.67;8.83;;;;;;;18.49;100.00;99611.06;5094095;28;20233;-81
2022/10/29 11:41:50;;;;;;;20.20;9.00;;;;;;;18.55;100.00;99606.00;5095033;28;20248;-82